Time;durP1;ratioP1;P1;durP2;ratioP2;P2;SDS_P1;SDS_P2;PMS_P1;PMS_P2;Temp;Humidity;BMP_temperature;BMP_pressure;BME280_temperature;BME280_humidity;BME280_pressure;Samples;Min_cycle;Max_cycle;Signal;HPM_P1;HPM_P2
2022/09/18 00:01:46;;;;;;;1.30;0.30;;;;;;;;;;5025813;28;20127;-73
2022/09/18 00:04:13;;;;;;;0.65;0.17;;;;;;;;;;5025476;28;20395;-73
2022/09/18 00:06:42;;;;;;;1.08;0.43;;;;;;;;;;5024887;28;20045;-73
2022/09/18 00:09:10;;;;;;;2.58;0.60;;;;;;;;;;5026199;28;20102;-74
2022/09/18 00:11:38;;;;;;;1.70;0.52;;;;;;;;;;5025989;28;20491;-72
2022/09/18 00:14:06;;;;;;;3.65;0.70;;;;;;;;;;5027257;28;20428;-73
2022/09/18 00:16:32;;;;;;;0.77;0.60;;;;;;;;;;5024746;28;20049;-73
2022/09/18 00:18:58;;;;;;;0.90;0.40;;;;;;;;;;5026791;28;20503;-73
2022/09/18 00:21:24;;;;;;;1.63;0.40;;;;;;;;;;5026827;28;20436;-73
2022/09/18 00:23:54;;;;;;;0.68;0.22;;;;;;;;;;5025886;28;20095;-73
2022/09/18 00:26:21;;;;;;;0.52;0.22;;;;;;;;;;5025865;28;20056;-73
2022/09/18 00:28:46;;;;;;;0.65;0.30;;;;;;;;;;5024458;28;20180;-73
2022/09/18 00:31:17;;;;;;;1.25;0.35;;;;;;;;;;5025442;28;20175;-73
2022/09/18 00:33:43;;;;;;;;;;;;;;;;;;5026569;28;20048;-73
2022/09/18 00:36:09;;;;;;;;;;;;;;;;;;5024877;28;20349;-73
2022/09/18 00:38:35;;;;;;;;;;;;;;;;;;5024875;28;19944;-73
2022/09/18 00:41:01;;;;;;;;;;;;;;;;;;5023181;28;19936;-73
2022/09/18 00:43:27;;;;;;;;;;;;;;;;;;5026306;28;19920;-73
2022/09/18 00:45:53;;;;;;;;;;;;;;;;;;5027075;28;19929;-73
2022/09/18 00:48:18;;;;;;;;;;;;;;;;;;5025382;28;20350;-72
2022/09/18 00:50:45;;;;;;;;;;;;;;;;;;5024417;28;20407;-72
2022/09/18 00:53:11;;;;;;;;;;;;;;;;;;5025494;28;19968;-72
2022/09/18 00:55:37;;;;;;;;;;;;;;;;;;5024269;28;20558;-72
2022/09/18 00:58:03;;;;;;;;;;;;;;;;;;5025902;28;20579;-72
2022/09/18 01:00:29;;;;;;;;;;;;;;;;;;5024862;28;19921;-72
2022/09/18 01:02:55;;;;;;;;;;;;;;;;;;5025797;28;19960;-72
2022/09/18 01:05:21;;;;;;;;;;;;;;;;;;5022092;28;20494;-72
2022/09/18 01:07:47;;;;;;;;;;;;;;;;;;5026194;28;19929;-72
2022/09/18 01:10:16;;;;;;;0.43;0.10;;;;;;;;;;5023792;28;20268;-72
2022/09/18 01:12:42;;;;;;;0.65;0.35;;;;;;;;;;5024506;28;20051;-72
2022/09/18 01:15:14;;;;;;;0.65;0.35;;;;;;;;;;5026097;28;20128;-72
2022/09/18 01:17:43;;;;;;;0.52;0.20;;;;;;;;;;5023457;28;20073;-72
2022/09/18 01:20:16;;;;;;;0.22;0.20;;;;;;;;;;5024027;28;20061;-72
2022/09/18 01:22:52;;;;;;;0.60;0.20;;;;;;;;;;5023934;28;20131;-72
2022/09/18 01:25:40;;;;;;;0.63;0.40;;;;;;;;;;5023996;28;20135;-72
2022/09/18 01:28:07;;;;;;;;;;;;;;;;;;5024087;28;20041;-72
2022/09/18 01:30:32;;;;;;;;;;;;;;;;;;5024104;28;20015;-71
2022/09/18 01:32:58;;;;;;;;;;;;;;;;;;5025049;28;20426;-72
2022/09/18 01:35:24;;;;;;;;;;;;;;;;;;5026051;28;19983;-72
2022/09/18 01:37:50;;;;;;;;;;;;;;;;;;5025748;28;19921;-72
2022/09/18 01:40:16;;;;;;;;;;;;;;;;;;5025510;28;19922;-72
2022/09/18 01:42:42;;;;;;;;;;;;;;;;;;5024015;28;19936;-72
2022/09/18 01:45:08;;;;;;;;;;;;;;;;;;5023500;28;19935;-72
2022/09/18 01:47:34;;;;;;;;;;;;;;;;;;5023793;28;19921;-72
2022/09/18 01:50:00;;;;;;;;;;;;;;;;;;5025904;28;19921;-72
2022/09/18 01:52:26;;;;;;;;;;;;;;;;;;5025305;28;19933;-73
2022/09/18 01:54:51;;;;;;;;;;;;;;;;;;5024523;28;19928;-72
2022/09/18 01:57:17;;;;;;;;;;;;;;;;;;5024090;28;19925;-72
2022/09/18 01:59:43;;;;;;;;;;;;;;;;;;5025230;28;20649;-72
2022/09/18 02:02:09;;;;;;;;;;;;;;;;;;5024746;28;19932;-72
2022/09/18 02:04:35;;;;;;;;;;;;;;;;;;5021995;28;19928;-72
2022/09/18 02:07:01;;;;;;;;;;;;;;;;;;5024036;28;19925;-72
2022/09/18 02:09:27;;;;;;;;;;;;;;;;;;5023313;28;19979;-72
2022/09/18 02:11:53;;;;;;;;;;;;;;;;;;5024887;28;19928;-72
2022/09/18 02:14:19;;;;;;;;;;;;;;;;;;5024453;28;19932;-72
2022/09/18 02:16:45;;;;;;;;;;;;;;;;;;5023655;28;20049;-72
2022/09/18 02:19:10;;;;;;;;;;;;;;;;;;5025585;28;19920;-73
2022/09/18 02:21:36;;;;;;;;;;;;;;;;;;5023100;28;20608;-73
2022/09/18 02:24:02;;;;;;;;;;;;;;;;;;5023776;28;19998;-73
2022/09/18 02:26:28;;;;;;;;;;;;;;;;;;5023499;28;19960;-73
2022/09/18 02:28:54;;;;;;;;;;;;;;;;;;5022742;28;20362;-73
2022/09/18 02:31:20;;;;;;;;;;;;;;;;;;5025212;28;19924;-72
2022/09/18 02:33:46;;;;;;;;;;;;;;;;;;5023510;28;19928;-72
2022/09/18 02:36:12;;;;;;;;;;;;;;;;;;5022841;28;20004;-73
2022/09/18 02:38:38;;;;;;;;;;;;;;;;;;5024442;28;20576;-72
2022/09/18 02:41:04;;;;;;;;;;;;;;;;;;5024773;28;19924;-72
2022/09/18 02:43:30;;;;;;;;;;;;;;;;;;5022407;28;19924;-73
2022/09/18 02:45:56;;;;;;;;;;;;;;;;;;5024265;28;19979;-73
2022/09/18 02:48:22;;;;;;;;;;;;;;;;;;5025039;28;19924;-73
2022/09/18 02:50:48;;;;;;;;;;;;;;;;;;5022175;28;20038;-73
2022/09/18 02:53:14;;;;;;;;;;;;;;;;;;5024493;28;19968;-73
2022/09/18 02:55:40;;;;;;;;;;;;;;;;;;5023831;28;19917;-73
2022/09/18 02:58:06;;;;;;;;;;;;;;;;;;5023885;28;19928;-73
2022/09/18 03:00:32;;;;;;;;;;;;;;;;;;5019755;28;19925;-73
2022/09/18 03:02:58;;;;;;;;;;;;;;;;;;5022940;28;19936;-73
2022/09/18 03:05:24;;;;;;;;;;;;;;;;;;5023807;28;19925;-73
2022/09/18 03:07:50;;;;;;;;;;;;;;;;;;5022723;28;19967;-73
2022/09/18 03:10:16;;;;;;;;;;;;;;;;;;5024521;28;20508;-73
2022/09/18 03:12:42;;;;;;;3.72;0.80;;;;;;;;;;5022828;28;20131;-73
2022/09/18 03:15:08;;;;;;;1.83;0.57;;;;;;;;;;5021527;28;20045;-70
2022/09/18 03:17:34;;;;;;;4.43;1.38;;;;;;;;;;5019789;28;20045;-72
2022/09/18 03:20:00;;;;;;;2.58;0.73;;;;;;;;;;5038815;28;20492;-72
2022/09/18 03:22:26;;;;;;;1.27;0.30;;;;;;;;;;5023665;28;20640;-72
2022/09/18 03:24:52;;;;;;;0.60;0.20;;;;;;;;;;5021552;28;20057;-72
2022/09/18 03:27:18;;;;;;;0.73;0.50;;;;;;;;;;5020477;28;20225;-72
2022/09/18 03:29:44;;;;;;;0.63;0.30;;;;;;;;;;5022803;28;20216;-72
2022/09/18 03:32:11;;;;;;;0.20;0.10;;;;;;;;;;5023280;28;20049;-72
2022/09/18 03:34:38;;;;;;;0.50;0.20;;;;;;;;;;5027574;28;20053;-72
2022/09/18 03:37:04;;;;;;;0.88;0.10;;;;;;;;;;5027502;28;20049;-72
2022/09/18 03:39:30;;;;;;;0.47;0.30;;;;;;;;;;5026931;28;20120;-72
2022/09/18 03:41:56;;;;;;;0.20;0.00;;;;;;;;;;5025873;28;20057;-71
2022/09/18 03:44:22;;;;;;;0.40;0.10;;;;;;;;;;5026058;28;20511;-71
2022/09/18 03:46:48;;;;;;;0.10;0.10;;;;;;;;;;5026749;28;20064;-70
2022/09/18 03:49:14;;;;;;;0.63;0.20;;;;;;;;;;5027427;28;20049;-71
2022/09/18 03:51:40;;;;;;;1.40;0.10;;;;;;;;;;5025843;28;20153;-72
2022/09/18 03:54:06;;;;;;;0.98;0.28;;;;;;;;;;5025383;28;20506;-73
2022/09/18 03:56:32;;;;;;;0.70;0.22;;;;;;;;;;5026427;28;20248;-72
2022/09/18 03:58:58;;;;;;;1.25;0.25;;;;;;;;;;5024976;28;20395;-72
2022/09/18 04:01:24;;;;;;;0.55;0.20;;;;;;;;;;5025153;28;20049;-72
2022/09/18 04:03:50;;;;;;;0.80;0.13;;;;;;;;;;5025703;28;20180;-72
2022/09/18 04:06:16;;;;;;;0.10;0.00;;;;;;;;;;5024834;28;20061;-72
2022/09/18 04:08:42;;;;;;;0.30;0.10;;;;;;;;;;5025520;28;20053;-72
2022/09/18 04:11:08;;;;;;;0.20;0.13;;;;;;;;;;5023438;28;20136;-72
2022/09/18 04:13:34;;;;;;;1.48;0.28;;;;;;;;;;5025669;28;20037;-72
2022/09/18 04:16:01;;;;;;;1.35;0.43;;;;;;;;;;5024721;28;20191;-72
2022/09/18 04:18:27;;;;;;;0.28;0.10;;;;;;;;;;5026822;28;20041;-73
2022/09/18 04:20:53;;;;;;;0.52;0.20;;;;;;;;;;5026103;28;20050;-73
2022/09/18 04:23:19;;;;;;;0.50;0.20;;;;;;;;;;5026510;28;20496;-72
2022/09/18 04:25:45;;;;;;;0.73;0.20;;;;;;;;;;5026554;28;20092;-72
2022/09/18 04:28:11;;;;;;;1.02;0.25;;;;;;;;;;5024675;28;20041;-73
2022/09/18 04:30:37;;;;;;;0.90;0.20;;;;;;;;;;5026683;28;20360;-72
2022/09/18 04:33:03;;;;;;;;;;;;;;;;;;5025133;28;20472;-71
2022/09/18 04:35:30;;;;;;;;;;;;;;;;;;5026194;28;19924;-72
2022/09/18 04:37:56;;;;;;;;;;;;;;;;;;5025351;28;19920;-71
2022/09/18 04:40:21;;;;;;;;;;;;;;;;;;5025286;28;20368;-71
2022/09/18 04:42:47;;;;;;;;;;;;;;;;;;5025904;28;19929;-71
2022/09/18 04:45:13;;;;;;;;;;;;;;;;;;5023466;28;20393;-71
2022/09/18 04:47:40;;;;;;;;;;;;;;;;;;5025889;28;19982;-71
2022/09/18 04:50:07;;;;;;;;;;;;;;;;;;5026262;28;19921;-71
2022/09/18 04:52:33;;;;;;;;;;;;;;;;;;5023523;28;20028;-71
2022/09/18 04:54:59;;;;;;;;;;;;;;;;;;5026034;28;20011;-71
2022/09/18 04:57:25;;;;;;;;;;;;;;;;;;5024628;28;19941;-71
2022/09/18 04:59:51;;;;;;;;;;;;;;;;;;5026835;28;20388;-71
2022/09/18 05:02:17;;;;;;;;;;;;;;;;;;5026000;28;19921;-71
2022/09/18 05:04:43;;;;;;;;;;;;;;;;;;5024210;28;19921;-71
2022/09/18 05:07:09;;;;;;;0.55;0.10;;;;;;;;;;5025880;28;19925;-72
2022/09/18 05:09:35;;;;;;;2.25;0.35;;;;;;;;;;5024269;28;20133;-71
2022/09/18 05:12:01;;;;;;;1.38;0.40;;;;;;;;;;5025021;28;19921;-72
2022/09/18 05:14:27;;;;;;;0.52;0.20;;;;;;;;;;5039510;28;20053;-71
2022/09/18 05:16:55;;;;;;;0.95;0.30;;;;;;;;;;5024247;28;20781;-71
2022/09/18 05:19:21;;;;;;;0.45;0.10;;;;;;;;;;5025236;28;20053;-71
2022/09/18 05:21:50;;;;;;;0.40;0.20;;;;;;;;;;5023313;28;20119;-72
2022/09/18 05:24:16;;;;;;;1.23;0.22;;;;;;;;;;5024994;28;20041;-71
2022/09/18 05:26:43;;;;;;;0.77;0.20;;;;;;;;;;5025339;28;20049;-71
2022/09/18 05:29:09;;;;;;;0.38;0.17;;;;;;;;;;5021830;28;20048;-71
2022/09/18 05:31:35;;;;;;;1.80;0.20;;;;;;;;;;5021508;28;20045;-72
2022/09/18 05:34:01;;;;;;;0.00;0.00;;;;;;;;;;5023941;28;20129;-72
2022/09/18 05:36:27;;;;;;;0.57;0.10;;;;;;;;;;5024050;28;20088;-72
2022/09/18 05:38:53;;;;;;;0.15;0.13;;;;;;;;;;5024494;28;20081;-71
2022/09/18 05:41:19;;;;;;;0.93;0.38;;;;;;;;;;5022935;28;20041;-71
2022/09/18 05:43:45;;;;;;;0.52;0.20;;;;;;;;;;5022136;28;20599;-71
2022/09/18 05:46:13;;;;;;;1.08;0.30;;;;;;;;;;5022414;28;20044;-71
2022/09/18 05:48:39;;;;;;;0.77;0.20;;;;;;;;;;5037220;28;20049;-72
2022/09/18 05:51:05;;;;;;;1.02;0.30;;;;;;;;;;5023218;28;20073;-71
2022/09/18 05:53:31;;;;;;;0.63;0.20;;;;;;;;;;5024552;28;20537;-71
2022/09/18 05:55:59;;;;;;;0.65;0.20;;;;;;;;;;5024430;28;20164;-72
2022/09/18 05:58:25;;;;;;;1.08;0.40;;;;;;;;;;5021384;28;20709;-71
2022/09/18 06:00:52;;;;;;;0.30;0.20;;;;;;;;;;5023390;28;20103;-71
2022/09/18 06:03:18;;;;;;;0.50;0.30;;;;;;;;;;5024346;28;20051;-71
2022/09/18 06:05:50;;;;;;;1.25;0.40;;;;;;;;;;5024450;28;20089;-71
2022/09/18 06:08:16;;;;;;;1.10;0.30;;;;;;;;;;5024109;28;20123;-71
2022/09/18 06:10:42;;;;;;;0.28;0.10;;;;;;;;;;5023202;28;20045;-71
2022/09/18 06:13:14;;;;;;;0.20;0.20;;;;;;;;;;5020540;28;20065;-72
2022/09/18 06:15:42;;;;;;;1.88;0.80;;;;;;;;;;5024164;28;20042;-72
2022/09/18 06:18:09;;;;;;;1.83;0.35;;;;;;;;;;5023478;28;20421;-72
2022/09/18 06:20:35;;;;;;;2.13;0.73;;;;;;;;;;5022433;28;20049;-72
2022/09/18 06:23:01;;;;;;;0.40;0.30;;;;;;;;;;5024327;28;20115;-72
2022/09/18 06:25:28;;;;;;;0.10;0.10;;;;;;;;;;5023603;28;20037;-71
2022/09/18 06:27:57;;;;;;;1.95;0.38;;;;;;;;;;5023118;28;20052;-71
2022/09/18 06:30:25;;;;;;;0.30;0.15;;;;;;;;;;5019093;28;20037;-72
2022/09/18 06:32:51;;;;;;;1.30;0.47;;;;;;;;;;5019854;28;20634;-72
2022/09/18 06:35:17;;;;;;;0.10;0.10;;;;;;;;;;5020548;28;20484;-72
2022/09/18 06:37:43;;;;;;;0.50;0.20;;;;;;;;;;5021013;28;20408;-72
2022/09/18 06:40:09;;;;;;;1.50;0.35;;;;;;;;;;5022995;28;20045;-71
2022/09/18 06:42:35;;;;;;;0.30;0.20;;;;;;;;;;5023333;28;20065;-72
2022/09/18 06:45:01;;;;;;;0.43;0.20;;;;;;;;;;5023827;28;20049;-71
2022/09/18 06:47:27;;;;;;;;;;;;;;;;;;5023057;28;20095;-71
2022/09/18 06:49:52;;;;;;;;;;;;;;;;;;5023634;28;20462;-72
2022/09/18 06:52:18;;;;;;;;;;;;;;;;;;5023967;28;19935;-71
2022/09/18 06:54:44;;;;;;;;;;;;;;;;;;5023582;28;19925;-71
2022/09/18 06:57:10;;;;;;;;;;;;;;;;;;5021750;28;19921;-71
2022/09/18 06:59:37;;;;;;;;;;;;;;;;;;5024342;28;19925;-71
2022/09/18 07:02:03;;;;;;;;;;;;;;;;;;5022738;28;19980;-71
2022/09/18 07:04:28;;;;;;;;;;;;;;;;;;5022117;28;20045;-71
2022/09/18 07:06:54;;;;;;;;;;;;;;;;;;5019554;28;19986;-71
2022/09/18 07:09:20;;;;;;;;;;;;;;;;;;5024289;28;19921;-71
2022/09/18 07:11:46;;;;;;;;;;;;;;;;;;5021474;28;19924;-71
2022/09/18 07:14:12;;;;;;;;;;;;;;;;;;5022865;28;19932;-71
2022/09/18 07:16:39;;;;;;;;;;;;;;;;;;5017959;28;19931;-71
2022/09/18 07:19:05;;;;;;;;;;;;;;;;;;5022125;28;20016;-71
2022/09/18 07:21:31;;;;;;;;;;;;;;;;;;5021894;28;19921;-71
2022/09/18 07:23:57;;;;;;;0.50;0.20;;;;;;;;;;5021332;28;19959;-71
2022/09/18 07:26:23;;;;;;;0.17;0.03;;;;;;;;;;5023075;28;20049;-71
2022/09/18 07:28:51;;;;;;;0.75;0.20;;;;;;;;;;5018886;28;20141;-71
2022/09/18 07:31:17;;;;;;;1.95;0.15;;;;;;;;;;5019311;28;20120;-71
2022/09/18 07:33:43;;;;;;;0.85;0.22;;;;;;;;;;5015917;28;20037;-70
2022/09/18 07:36:09;;;;;;;0.52;0.32;;;;;;;;;;5021219;28;20542;-69
2022/09/18 07:38:36;;;;;;;2.10;0.50;;;;;;;;;;5022308;28;20060;-71
2022/09/18 07:41:03;;;;;;;1.25;0.40;;;;;;;;;;5021195;28;20052;-71
2022/09/18 07:43:28;;;;;;;;;;;;;;;;;;5022049;28;19944;-72
2022/09/18 07:45:54;;;;;;;;;;;;;;;;;;5019777;28;19956;-72
2022/09/18 07:48:22;;;;;;;;;;;;;;;;;;5021143;28;19936;-71
2022/09/18 07:50:48;;;;;;;;;;;;;;;;;;5022830;28;20587;-72
2022/09/18 07:53:14;;;;;;;;;;;;;;;;;;5021969;28;19929;-71
2022/09/18 07:55:44;;;;;;;;;;;;;;;;;;5018329;28;20342;-73
2022/09/18 07:58:10;;;;;;;;;;;;;;;;;;5020910;28;19982;-72
2022/09/18 08:00:36;;;;;;;;;;;;;;;;;;5010089;28;20354;-67
2022/09/18 08:03:02;;;;;;;;;;;;;;;;;;5022551;28;20324;-73
2022/09/18 08:05:28;;;;;;;;;;;;;;;;;;5022065;28;19960;-74
2022/09/18 08:07:53;;;;;;;;;;;;;;;;;;5021656;28;19984;-71
2022/09/18 08:10:19;;;;;;;;;;;;;;;;;;5021289;28;19925;-70
2022/09/18 08:12:45;;;;;;;;;;;;;;;;;;5022585;28;19931;-70
2022/09/18 08:15:11;;;;;;;;;;;;;;;;;;5019836;28;19936;-71
2022/09/18 08:17:37;;;;;;;;;;;;;;;;;;5022564;28;19933;-70
2022/09/18 08:20:03;;;;;;;;;;;;;;;;;;5021186;28;19972;-71
2022/09/18 08:22:29;;;;;;;;;;;;;;;;;;5026246;28;19939;-70
2022/09/18 08:24:55;;;;;;;;;;;;;;;;;;5026806;28;19925;-70
2022/09/18 08:27:21;;;;;;;;;;;;;;;;;;5025270;28;19929;-69
2022/09/18 08:29:47;;;;;;;;;;;;;;;;;;5027138;28;20892;-69
2022/09/18 08:32:12;;;;;;;;;;;;;;;;;;5025736;28;19925;-69
2022/09/18 08:34:38;;;;;;;;;;;;;;;;;;5026591;28;19944;-69
2022/09/18 08:37:04;;;;;;;;;;;;;;;;;;5027066;28;19939;-70
2022/09/18 08:39:30;;;;;;;;;;;;;;;;;;5027346;28;20372;-70
2022/09/18 08:41:56;;;;;;;;;;;;;;;;;;5024870;28;20136;-70
2022/09/18 08:44:23;;;;;;;;;;;;;;;;;;5027448;28;19961;-71
2022/09/18 08:46:49;;;;;;;;;;;;;;;;;;5026703;28;19929;-72
2022/09/18 08:49:14;;;;;;;;;;;;;;;;;;5024997;28;20354;-71
2022/09/18 08:51:40;;;;;;;;;;;;;;;;;;5022408;28;19925;-71
2022/09/18 08:54:06;;;;;;;;;;;;;;;;;;5019837;28;19936;-71
2022/09/18 08:56:32;;;;;;;;;;;;;;;;;;5019931;28;20407;-69
2022/09/18 08:58:58;;;;;;;;;;;;;;;;;;5017703;28;20414;-71
2022/09/18 09:01:24;;;;;;;;;;;;;;;;;;5023708;28;20341;-71
2022/09/18 09:03:50;;;;;;;;;;;;;;;;;;5018706;28;19922;-71
2022/09/18 09:06:16;;;;;;;;;;;;;;;;;;5026565;28;19936;-71
2022/09/18 09:08:42;;;;;;;;;;;;;;;;;;5022417;28;20319;-71
2022/09/18 09:11:08;;;;;;;;;;;;;;;;;;5020086;28;19929;-71
2022/09/18 09:13:33;;;;;;;;;;;;;;;;;;5015560;28;19924;-70
2022/09/18 09:15:59;;;;;;;;;;;;;;;;;;5019413;28;20397;-70
2022/09/18 09:18:25;;;;;;;;;;;;;;;;;;5020626;28;19921;-71
2022/09/18 09:20:51;;;;;;;;;;;;;;;;;;5017121;28;20015;-70
2022/09/18 09:23:17;;;;;;;;;;;;;;;;;;5015726;28;20490;-71
2022/09/18 09:25:43;;;;;;;;;;;;;;;;;;5021823;28;20702;-69
2022/09/18 09:28:09;;;;;;;;;;;;;;;;;;5018630;28;19938;-68
2022/09/18 09:30:35;;;;;;;;;;;;;;;;;;5017205;28;19925;-66
2022/09/18 09:33:01;;;;;;;;;;;;;;;;;;5024614;28;19926;-66
2022/09/18 09:35:28;;;;;;;;;;;;;;;;;;5025534;28;20418;-66
2022/09/18 09:37:54;;;;;;;;;;;;;;;;;;5019276;28;19978;-67
2022/09/18 09:40:20;;;;;;;;;;;;;;;;;;5024371;28;19921;-66
2022/09/18 09:42:46;;;;;;;;;;;;;;;;;;5022822;28;19943;-67
2022/09/18 09:45:12;;;;;;;;;;;;;;;;;;5024555;28;19928;-67
2022/09/18 09:47:38;;;;;;;;;;;;;;;;;;5024970;28;19929;-67
2022/09/18 09:50:04;;;;;;;;;;;;;;;;;;5025406;28;19928;-67
2022/09/18 09:52:30;;;;;;;;;;;;;;;;;;5022464;28;19951;-67
2022/09/18 09:54:56;;;;;;;;;;;;;;;;;;5025285;28;19935;-66
2022/09/18 09:57:22;;;;;;;;;;;;;;;;;;5023408;28;20322;-66
2022/09/18 09:59:48;;;;;;;;;;;;;;;;;;5023898;28;20003;-66
2022/09/18 10:02:14;;;;;;;;;;;;;;;;;;5024188;28;19925;-67
2022/09/18 10:04:40;;;;;;;;;;;;;;;;;;5025799;28;19923;-66
2022/09/18 10:07:06;;;;;;;;;;;;;;;;;;5024541;28;20284;-66
2022/09/18 10:09:32;;;;;;;;;;;;;;;;;;5025523;28;19932;-66
2022/09/18 10:11:58;;;;;;;;;;;;;;;;;;5024386;28;19920;-66
2022/09/18 10:14:23;;;;;;;;;;;;;;;;;;5024639;28;19931;-66
2022/09/18 10:16:49;;;;;;;;;;;;;;;;;;5024749;28;19923;-66
2022/09/18 10:19:15;;;;;;;;;;;;;;;;;;5025402;28;19928;-66
2022/09/18 10:21:41;;;;;;;;;;;;;;;;;;5021939;28;19921;-66
2022/09/18 10:24:07;;;;;;;;;;;;;;;;;;5024874;28;19928;-66
2022/09/18 10:26:33;;;;;;;;;;;;;;;;;;5023637;28;19947;-66
2022/09/18 10:28:59;;;;;;;;;;;;;;;;;;5024314;28;19961;-67
2022/09/18 10:31:25;;;;;;;;;;;;;;;;;;5025307;28;20032;-67
2022/09/18 10:33:51;;;;;;;;;;;;;;;;;;5024460;28;19920;-67
2022/09/18 10:36:18;;;;;;;;;;;;;;;;;;5025374;28;19921;-67
2022/09/18 10:38:44;;;;;;;;;;;;;;;;;;5023496;28;20018;-67
2022/09/18 10:41:10;;;;;;;;;;;;;;;;;;5024352;28;20016;-67
2022/09/18 10:43:36;;;;;;;;;;;;;;;;;;5025064;28;20328;-67
2022/09/18 10:46:01;;;;;;;;;;;;;;;;;;5023317;28;19920;-67
2022/09/18 10:48:27;;;;;;;;;;;;;;;;;;5023126;28;19963;-67
2022/09/18 10:50:53;;;;;;;;;;;;;;;;;;5022695;28;19925;-67
2022/09/18 10:53:19;;;;;;;;;;;;;;;;;;5023193;28;19932;-66
2022/09/18 10:55:45;;;;;;;;;;;;;;;;;;5024232;28;19928;-66
2022/09/18 10:58:11;;;;;;;;;;;;;;;;;;5024981;28;20063;-66
2022/09/18 11:00:37;;;;;;;;;;;;;;;;;;5024391;28;19921;-67
2022/09/18 11:03:03;;;;;;;;;;;;;;;;;;5023723;28;19921;-67
2022/09/18 11:05:29;;;;;;;;;;;;;;;;;;5024059;28;19932;-67
2022/09/18 11:07:55;;;;;;;;;;;;;;;;;;5022141;28;20490;-68
2022/09/18 11:10:21;;;;;;;;;;;;;;;;;;5022200;28;19928;-68
2022/09/18 11:12:46;;;;;;;;;;;;;;;;;;5023149;28;19925;-66
2022/09/18 11:15:15;;;;;;;1.00;0.60;;;;;;;;;;5023493;28;20294;-67
2022/09/18 11:17:46;;;;;;;0.70;0.38;;;;;;;;;;5022247;28;20663;-67
2022/09/18 11:20:20;;;;;;;0.73;0.40;;;;;;;;;;5024192;28;20539;-66
2022/09/18 11:22:47;;;;;;;0.65;0.20;;;;;;;;;;5021380;28;20057;-66
2022/09/18 11:25:13;;;;;;;0.68;0.20;;;;;;;;;;5023351;28;20125;-66
2022/09/18 11:27:46;;;;;;;0.57;0.40;;;;;;;;;;5024141;28;20053;-66
2022/09/18 11:30:19;;;;;;;1.67;0.30;;;;;;;;;;5020930;28;20072;-66
2022/09/18 11:32:45;;;;;;;;;;;;;;;;;;5011277;28;20500;-66
2022/09/18 11:35:15;;;;;;;0.93;0.40;;;;;;;;;;5014714;28;19925;-66
2022/09/18 11:37:48;;;;;;;0.95;0.43;;;;;;;;;;5020884;28;20053;-66
2022/09/18 11:40:13;;;;;;;;;;;;;;;;;;5023941;28;20480;-69
2022/09/18 11:42:43;;;;;;;1.90;0.52;;;;;;;;;;5023689;28;19924;-68
2022/09/18 11:45:28;;;;;;;2.33;0.60;;;;;;;;;;5022574;28;20048;-68
2022/09/18 11:47:56;;;;;;;2.55;0.40;;;;;;;;;;5023570;28;20045;-68
2022/09/18 11:50:25;;;;;;;1.30;0.50;;;;;;;;;;5024240;28;20046;-68
2022/09/18 11:52:57;;;;;;;1.25;0.30;;;;;;;;;;5022224;28;20046;-68
2022/09/18 11:55:30;;;;;;;3.38;0.50;;;;;;;;;;5026669;28;20067;-68
2022/09/18 11:58:05;;;;;;;1.17;0.30;;;;;;;;;;5027720;28;20061;-68
2022/09/18 12:00:44;;;;;;;2.28;0.70;;;;;;;;;;5028008;28;20050;-68
2022/09/18 12:03:16;;;;;;;3.08;0.70;;;;;;;;;;5021145;28;20132;-68
2022/09/18 12:05:51;;;;;;;4.05;0.60;;;;;;;;;;5024565;28;20041;-68
2022/09/18 12:08:17;;;;;;;;;;;;;;;;;;5019625;28;19925;-68
2022/09/18 12:10:43;;;;;;;;;;;;;;;;;;5025152;28;19957;-67
2022/09/18 12:13:09;;;;;;;;;;;;;;;;;;5024066;28;20100;-68
2022/09/18 12:15:35;;;;;;;;;;;;;;;;;;5025046;28;19972;-68
2022/09/18 12:18:09;;;;;;;1.38;0.65;;;;;;;;;;5019164;28;20000;-68
2022/09/18 12:20:40;;;;;;;1.58;0.50;;;;;;;;;;5026478;28;20065;-69
2022/09/18 12:23:11;;;;;;;4.32;1.00;;;;;;;;;;5023364;28;20493;-69
2022/09/18 12:25:43;;;;;;;3.25;0.70;;;;;;;;;;5017037;28;20101;-68
2022/09/18 12:28:16;;;;;;;1.92;0.52;;;;;;;;;;5021015;28;20055;-68
2022/09/18 12:30:45;;;;;;;1.33;0.40;;;;;;;;;;5014670;28;20103;-68
2022/09/18 12:33:24;;;;;;;3.92;0.95;;;;;;;;;;5024332;28;20083;-67
2022/09/18 12:36:16;;;;;;;1.67;0.40;;;;;;;;;;5025479;28;20045;-67
2022/09/18 12:39:02;;;;;;;1.20;0.55;;;;;;;;;;5003269;28;20424;-68
2022/09/18 12:41:46;;;;;;;1.95;0.75;;;;;;;;;;4990146;28;20053;-67
2022/09/18 12:44:24;;;;;;;1.80;0.70;;;;;;;;;;5016592;28;20046;-68
2022/09/18 12:46:50;;;;;;;1.05;0.50;;;;;;;;;;5023418;28;20048;-68
2022/09/18 12:49:35;;;;;;;3.30;0.88;;;;;;;;;;5024767;28;20148;-68
2022/09/18 12:52:04;;;;;;;2.25;0.68;;;;;;;;;;5022672;28;20037;-68
2022/09/18 12:54:42;;;;;;;2.03;0.55;;;;;;;;;;5025830;28;20037;-68
2022/09/18 12:57:07;;;;;;;0.30;0.30;;;;;;;;;;5025640;28;20590;-68
2022/09/18 12:59:52;;;;;;;1.67;0.40;;;;;;;;;;5024109;28;20511;-68
2022/09/18 13:02:39;;;;;;;1.65;0.65;;;;;;;;;;5022136;28;20107;-69
2022/09/18 13:05:08;;;;;;;4.88;0.85;;;;;;;;;;5020357;28;20037;-68
2022/09/18 13:07:47;;;;;;;3.28;1.05;;;;;;;;;;5019920;28;20068;-69
2022/09/18 13:10:13;;;;;;;2.97;0.70;;;;;;;;;;5025365;28;20046;-69
2022/09/18 13:12:48;;;;;;;3.55;0.77;;;;;;;;;;5024591;28;20076;-68
2022/09/18 13:15:18;;;;;;;1.05;0.57;;;;;;;;;;5026199;28;20045;-68
2022/09/18 13:17:50;;;;;;;2.40;0.60;;;;;;;;;;5025872;28;20041;-67
2022/09/18 13:20:16;;;;;;;;;;;;;;;;;;5026956;28;20071;-67
2022/09/18 13:22:43;;;;;;;3.33;0.90;;;;;;;;;;5021407;28;19921;-67
2022/09/18 13:25:10;;;;;;;;;;;;;;;;;;5018495;28;19928;-67
2022/09/18 13:27:36;;;;;;;;;;;;;;;;;;5020058;28;19917;-67
2022/09/18 13:30:02;;;;;;;;;;;;;;;;;;5017740;28;19971;-67
2022/09/18 13:32:28;;;;;;;;;;;;;;;;;;5025005;28;19929;-68
2022/09/18 13:34:54;;;;;;;;;;;;;;;;;;5014102;28;19925;-75
2022/09/18 13:37:21;;;;;;;;;;;;;;;;;;5020311;28;19979;-71
2022/09/18 13:39:47;;;;;;;;;;;;;;;;;;5021705;28;20340;-69
2022/09/18 13:42:13;;;;;;;;;;;;;;;;;;5020683;28;19936;-69
2022/09/18 13:44:39;;;;;;;;;;;;;;;;;;5020618;28;20013;-69
2022/09/18 13:47:05;;;;;;;;;;;;;;;;;;5017206;28;19929;-69
2022/09/18 13:49:31;;;;;;;;;;;;;;;;;;5017863;28;19979;-69
2022/09/18 13:51:57;;;;;;;;;;;;;;;;;;5020161;28;19987;-70
2022/09/18 13:54:23;;;;;;;;;;;;;;;;;;5018611;28;20428;-69
2022/09/18 13:56:49;;;;;;;;;;;;;;;;;;5019447;28;19960;-69
2022/09/18 13:59:14;;;;;;;;;;;;;;;;;;5015836;28;20375;-69
2022/09/18 14:01:40;;;;;;;;;;;;;;;;;;5022443;28;20016;-69
2022/09/18 14:04:06;;;;;;;;;;;;;;;;;;5017721;28;19940;-69
2022/09/18 14:06:32;;;;;;;;;;;;;;;;;;5021335;28;19925;-69
2022/09/18 14:08:58;;;;;;;;;;;;;;;;;;5017310;28;20434;-69
2022/09/18 14:11:24;;;;;;;;;;;;;;;;;;5021722;28;19925;-69
2022/09/18 14:13:51;;;;;;;;;;;;;;;;;;5013528;28;19956;-69
2022/09/18 14:16:17;;;;;;;;;;;;;;;;;;5019100;28;19965;-69
2022/09/18 14:18:43;;;;;;;;;;;;;;;;;;5018187;28;19983;-69
2022/09/18 14:21:09;;;;;;;;;;;;;;;;;;5018804;28;20477;-69
2022/09/18 14:23:35;;;;;;;;;;;;;;;;;;5017763;28;19958;-69
2022/09/18 14:26:01;;;;;;;;;;;;;;;;;;5017623;28;19932;-69
2022/09/18 14:28:27;;;;;;;;;;;;;;;;;;5020883;28;19924;-71
2022/09/18 14:30:53;;;;;;;;;;;;;;;;;;5015661;28;20450;-70
2022/09/18 14:33:19;;;;;;;;;;;;;;;;;;5021703;28;19928;-71
2022/09/18 14:35:45;;;;;;;;;;;;;;;;;;5020978;28;20052;-72
2022/09/18 14:38:11;;;;;;;;;;;;;;;;;;5021627;28;20017;-71
2022/09/18 14:40:37;;;;;;;;;;;;;;;;;;5018658;28;20368;-71
2022/09/18 14:43:03;;;;;;;;;;;;;;;;;;5022751;28;19925;-71
2022/09/18 14:45:29;;;;;;;;;;;;;;;;;;5020052;28;19929;-71
2022/09/18 14:47:55;;;;;;;;;;;;;;;;;;5017543;28;19926;-71
2022/09/18 14:50:21;;;;;;;;;;;;;;;;;;5014824;28;19921;-71
2022/09/18 14:52:47;;;;;;;5.70;0.90;;;;;;;;;;5021589;28;19924;-72
2022/09/18 14:55:25;;;;;;;3.08;1.00;;;;;;;;;;5017547;28;20041;-72
2022/09/18 14:57:55;;;;;;;2.87;1.00;;;;;;;;;;5018403;28;20516;-71
2022/09/18 15:00:21;;;;;;;;;;;;;;;;;;5020514;28;20094;-72
2022/09/18 15:02:47;;;;;;;;;;;;;;;;;;5017296;28;19921;-72
2022/09/18 15:05:13;;;;;;;;;;;;;;;;;;5019812;28;19947;-73
2022/09/18 15:07:39;;;;;;;;;;;;;;;;;;5022113;28;19933;-75
2022/09/18 15:10:04;;;;;;;;;;;;;;;;;;5020632;28;19970;-74
2022/09/18 15:12:33;;;;;;;;;;;;;;;;;;5024014;28;19921;-75
2022/09/18 15:14:59;;;;;;;;;;;;;;;;;;5022858;28;19983;-75
2022/09/18 15:17:25;;;;;;;;;;;;;;;;;;5020635;28;19960;-72
2022/09/18 15:19:51;;;;;;;;;;;;;;;;;;5017349;28;20032;-72
2022/09/18 15:22:17;;;;;;;;;;;;;;;;;;5018268;28;20165;-69
2022/09/18 15:24:43;;;;;;;;;;;;;;;;;;5022326;28;19921;-72
2022/09/18 15:27:09;;;;;;;;;;;;;;;;;;5021560;28;20284;-66
2022/09/18 15:29:34;;;;;;;;;;;;;;;;;;5018576;28;19971;-63
2022/09/18 15:32:00;;;;;;;;;;;;;;;;;;5022747;28;19921;-63
2022/09/18 15:34:26;;;;;;;;;;;;;;;;;;5019992;28;19921;-63
2022/09/18 15:36:52;;;;;;;;;;;;;;;;;;5022390;28;19925;-63
2022/09/18 15:39:18;;;;;;;;;;;;;;;;;;5024662;28;19924;-63
2022/09/18 15:41:44;;;;;;;;;;;;;;;;;;5018339;28;20307;-63
2022/09/18 15:44:10;;;;;;;;;;;;;;;;;;5018280;28;19936;-63
2022/09/18 15:46:36;;;;;;;;;;;;;;;;;;5024204;28;19921;-63
2022/09/18 15:49:03;;;;;;;;;;;;;;;;;;5023247;28;20513;-63
2022/09/18 15:51:29;;;;;;;;;;;;;;;;;;5021707;28;19928;-64
2022/09/18 15:53:54;;;;;;;;;;;;;;;;;;5022454;28;19928;-65